sensor_id;sensor_type;location;lat;lon;timestamp;temperature;humidity
20384;DHT22;46458;50.966;7.002;2022-08-25T00:02:20;25.30;90.20
20384;DHT22;46458;50.966;7.002;2022-08-25T00:04:49;25.20;90.40
20384;DHT22;46458;50.966;7.002;2022-08-25T00:07:18;25.30;90.20
20384;DHT22;46458;50.966;7.002;2022-08-25T00:09:49;25.20;90.30
20384;DHT22;46458;50.966;7.002;2022-08-25T00:12:18;25.20;90.40
20384;DHT22;46458;50.966;7.002;2022-08-25T00:14:47;25.10;90.50
20384;DHT22;46458;50.966;7.002;2022-08-25T00:17:16;25.10;90.70
20384;DHT22;46458;50.966;7.002;2022-08-25T00:19:45;25.00;90.70
20384;DHT22;46458;50.966;7.002;2022-08-25T00:22:14;25.00;90.90
20384;DHT22;46458;50.966;7.002;2022-08-25T00:24:43;24.90;90.60
20384;DHT22;46458;50.966;7.002;2022-08-25T00:27:14;24.90;90.60
20384;DHT22;46458;50.966;7.002;2022-08-25T00:29:43;24.90;91.10
20384;DHT22;46458;50.966;7.002;2022-08-25T00:32:12;24.80;91.10
20384;DHT22;46458;50.966;7.002;2022-08-25T00:34:41;24.80;91.30
20384;DHT22;46458;50.966;7.002;2022-08-25T00:37:10;24.70;91.10
20384;DHT22;46458;50.966;7.002;2022-08-25T00:39:40;24.70;90.90
20384;DHT22;46458;50.966;7.002;2022-08-25T00:42:09;24.70;90.90
20384;DHT22;46458;50.966;7.002;2022-08-25T00:44:43;24.70;91.40
20384;DHT22;46458;50.966;7.002;2022-08-25T00:47:12;24.60;91.50
20384;DHT22;46458;50.966;7.002;2022-08-25T00:49:43;24.60;91.50
20384;DHT22;46458;50.966;7.002;2022-08-25T00:52:16;24.60;91.30
20384;DHT22;46458;50.966;7.002;2022-08-25T00:54:51;24.50;91.60
20384;DHT22;46458;50.966;7.002;2022-08-25T00:57:25;24.50;91.70
20384;DHT22;46458;50.966;7.002;2022-08-25T00:59:57;24.40;91.80
20384;DHT22;46458;50.966;7.002;2022-08-25T01:02:29;24.50;91.80
20384;DHT22;46458;50.966;7.002;2022-08-25T01:05:08;24.40;92.20
20384;DHT22;46458;50.966;7.002;2022-08-25T01:07:37;24.30;92.10
20384;DHT22;46458;50.966;7.002;2022-08-25T01:10:11;24.30;92.40
20384;DHT22;46458;50.966;7.002;2022-08-25T01:12:40;24.30;92.30
20384;DHT22;46458;50.966;7.002;2022-08-25T01:15:15;24.30;92.10
20384;DHT22;46458;50.966;7.002;2022-08-25T01:17:49;24.20;92.40
20384;DHT22;46458;50.966;7.002;2022-08-25T01:20:20;24.10;92.50
20384;DHT22;46458;50.966;7.002;2022-08-25T01:22:51;24.10;92.70
20384;DHT22;46458;50.966;7.002;2022-08-25T01:25:44;24.20;91.90
20384;DHT22;46458;50.966;7.002;2022-08-25T01:28:15;24.20;91.90
20384;DHT22;46458;50.966;7.002;2022-08-25T01:30:45;24.20;92.10
20384;DHT22;46458;50.966;7.002;2022-08-25T01:33:14;24.20;92.50
20384;DHT22;46458;50.966;7.002;2022-08-25T01:35:45;24.20;92.40
20384;DHT22;46458;50.966;7.002;2022-08-25T01:38:17;24.20;92.50
20384;DHT22;46458;50.966;7.002;2022-08-25T01:40:46;24.20;92.20
20384;DHT22;46458;50.966;7.002;2022-08-25T01:43:24;24.20;92.40
20384;DHT22;46458;50.966;7.002;2022-08-25T01:45:54;24.20;92.70
20384;DHT22;46458;50.966;7.002;2022-08-25T01:48:23;24.20;92.00
20384;DHT22;46458;50.966;7.002;2022-08-25T01:50:52;24.20;92.40
20384;DHT22;46458;50.966;7.002;2022-08-25T01:53:27;24.20;92.40
20384;DHT22;46458;50.966;7.002;2022-08-25T01:55:56;24.20;92.20
20384;DHT22;46458;50.966;7.002;2022-08-25T01:58:32;24.20;92.20
20384;DHT22;46458;50.966;7.002;2022-08-25T02:01:04;24.10;92.40
20384;DHT22;46458;50.966;7.002;2022-08-25T02:03:39;24.10;92.30
20384;DHT22;46458;50.966;7.002;2022-08-25T02:06:10;24.10;92.60
20384;DHT22;46458;50.966;7.002;2022-08-25T02:08:42;24.00;92.80
20384;DHT22;46458;50.966;7.002;2022-08-25T02:11:12;24.00;93.00
20384;DHT22;46458;50.966;7.002;2022-08-25T02:13:42;24.00;93.10
20384;DHT22;46458;50.966;7.002;2022-08-25T02:16:17;24.00;93.10
20384;DHT22;46458;50.966;7.002;2022-08-25T02:18:47;23.90;93.50
20384;DHT22;46458;50.966;7.002;2022-08-25T02:21:17;23.90;93.20
20384;DHT22;46458;50.966;7.002;2022-08-25T02:23:49;23.80;93.40
20384;DHT22;46458;50.966;7.002;2022-08-25T02:26:26;23.90;93.10
20384;DHT22;46458;50.966;7.002;2022-08-25T02:28:55;23.90;93.00
20384;DHT22;46458;50.966;7.002;2022-08-25T02:31:25;23.90;92.90
20384;DHT22;46458;50.966;7.002;2022-08-25T02:33:56;23.90;92.90
20384;DHT22;46458;50.966;7.002;2022-08-25T02:36:27;24.00;93.00
20384;DHT22;46458;50.966;7.002;2022-08-25T02:38:59;23.90;93.00
20384;DHT22;46458;50.966;7.002;2022-08-25T02:41:28;23.80;93.20
20384;DHT22;46458;50.966;7.002;2022-08-25T02:43:58;23.80;93.40
20384;DHT22;46458;50.966;7.002;2022-08-25T02:46:28;23.70;93.40
20384;DHT22;46458;50.966;7.002;2022-08-25T02:48:57;23.70;93.50
20384;DHT22;46458;50.966;7.002;2022-08-25T02:51:26;23.60;94.00
20384;DHT22;46458;50.966;7.002;2022-08-25T02:54:00;23.60;93.80
20384;DHT22;46458;50.966;7.002;2022-08-25T02:56:31;23.60;94.30
20384;DHT22;46458;50.966;7.002;2022-08-25T02:59:01;23.50;94.40
20384;DHT22;46458;50.966;7.002;2022-08-25T03:01:30;23.50;94.50
20384;DHT22;46458;50.966;7.002;2022-08-25T03:04:00;23.40;94.70
20384;DHT22;46458;50.966;7.002;2022-08-25T03:06:30;23.40;94.60
20384;DHT22;46458;50.966;7.002;2022-08-25T03:09:02;23.30;94.80
20384;DHT22;46458;50.966;7.002;2022-08-25T03:11:31;23.30;95.00
20384;DHT22;46458;50.966;7.002;2022-08-25T03:13:59;23.30;94.90
20384;DHT22;46458;50.966;7.002;2022-08-25T03:16:28;23.30;94.90
20384;DHT22;46458;50.966;7.002;2022-08-25T03:18:57;23.30;95.20
20384;DHT22;46458;50.966;7.002;2022-08-25T03:21:29;23.30;95.10
20384;DHT22;46458;50.966;7.002;2022-08-25T03:24:04;23.20;95.40
20384;DHT22;46458;50.966;7.002;2022-08-25T03:26:33;23.20;95.50
20384;DHT22;46458;50.966;7.002;2022-08-25T03:29:14;23.10;95.70
20384;DHT22;46458;50.966;7.002;2022-08-25T03:31:49;23.10;95.90
20384;DHT22;46458;50.966;7.002;2022-08-25T03:34:20;23.10;95.90
20384;DHT22;46458;50.966;7.002;2022-08-25T03:36:51;23.00;96.00
20384;DHT22;46458;50.966;7.002;2022-08-25T03:39:24;23.00;96.20
20384;DHT22;46458;50.966;7.002;2022-08-25T03:41:53;23.00;96.30
20384;DHT22;46458;50.966;7.002;2022-08-25T03:44:22;22.90;96.60
20384;DHT22;46458;50.966;7.002;2022-08-25T03:46:51;22.90;96.90
20384;DHT22;46458;50.966;7.002;2022-08-25T03:49:22;22.90;97.10
20384;DHT22;46458;50.966;7.002;2022-08-25T03:51:52;22.80;97.00
20384;DHT22;46458;50.966;7.002;2022-08-25T03:54:25;22.70;97.40
20384;DHT22;46458;50.966;7.002;2022-08-25T03:56:54;22.70;97.70
20384;DHT22;46458;50.966;7.002;2022-08-25T03:59:23;22.70;97.70
20384;DHT22;46458;50.966;7.002;2022-08-25T04:01:52;22.70;97.80
20384;DHT22;46458;50.966;7.002;2022-08-25T04:04:21;22.70;98.60
20384;DHT22;46458;50.966;7.002;2022-08-25T04:06:49;22.60;98.10
20384;DHT22;46458;50.966;7.002;2022-08-25T04:09:18;22.60;98.40
20384;DHT22;46458;50.966;7.002;2022-08-25T04:11:52;22.60;98.50
20384;DHT22;46458;50.966;7.002;2022-08-25T04:14:21;22.60;98.60
20384;DHT22;46458;50.966;7.002;2022-08-25T04:16:51;22.50;99.00
20384;DHT22;46458;50.966;7.002;2022-08-25T04:19:20;22.40;99.10
20384;DHT22;46458;50.966;7.002;2022-08-25T04:21:50;22.40;99.20
20384;DHT22;46458;50.966;7.002;2022-08-25T04:24:19;22.40;99.50
20384;DHT22;46458;50.966;7.002;2022-08-25T04:26:52;22.30;99.70
20384;DHT22;46458;50.966;7.002;2022-08-25T04:29:23;22.30;99.80
20384;DHT22;46458;50.966;7.002;2022-08-25T04:31:53;22.30;99.90
20384;DHT22;46458;50.966;7.002;2022-08-25T04:34:24;22.30;99.90
20384;DHT22;46458;50.966;7.002;2022-08-25T04:36:53;22.30;99.90
20384;DHT22;46458;50.966;7.002;2022-08-25T04:39:22;22.30;99.90
20384;DHT22;46458;50.966;7.002;2022-08-25T04:41:53;22.30;99.90
20384;DHT22;46458;50.966;7.002;2022-08-25T04:44:25;22.30;99.90
20384;DHT22;46458;50.966;7.002;2022-08-25T04:46:55;22.30;99.90
20384;DHT22;46458;50.966;7.002;2022-08-25T04:49:23;22.30;99.90
20384;DHT22;46458;50.966;7.002;2022-08-25T04:51:53;22.30;99.90
20384;DHT22;46458;50.966;7.002;2022-08-25T04:54:22;22.30;99.90
20384;DHT22;46458;50.966;7.002;2022-08-25T04:56:55;22.40;99.90
20384;DHT22;46458;50.966;7.002;2022-08-25T04:59:24;22.30;99.90
20384;DHT22;46458;50.966;7.002;2022-08-25T05:01:53;22.40;99.90
20384;DHT22;46458;50.966;7.002;2022-08-25T05:04:23;22.30;99.90
20384;DHT22;46458;50.966;7.002;2022-08-25T05:06:52;22.30;99.90
20384;DHT22;46458;50.966;7.002;2022-08-25T05:09:21;22.30;99.90
20384;DHT22;46458;50.966;7.002;2022-08-25T05:11:50;22.30;99.90
20384;DHT22;46458;50.966;7.002;2022-08-25T05:14:24;22.30;99.90
20384;DHT22;46458;50.966;7.002;2022-08-25T05:16:54;22.30;99.90
20384;DHT22;46458;50.966;7.002;2022-08-25T05:19:23;22.30;99.90
20384;DHT22;46458;50.966;7.002;2022-08-25T05:21:52;22.30;99.90
20384;DHT22;46458;50.966;7.002;2022-08-25T05:24:21;22.30;99.90
20384;DHT22;46458;50.966;7.002;2022-08-25T05:26:53;22.30;99.90
20384;DHT22;46458;50.966;7.002;2022-08-25T05:29:25;22.30;99.90
20384;DHT22;46458;50.966;7.002;2022-08-25T05:31:54;22.40;99.90
20384;DHT22;46458;50.966;7.002;2022-08-25T05:34:23;22.40;99.90
20384;DHT22;46458;50.966;7.002;2022-08-25T05:36:52;22.40;99.90
20384;DHT22;46458;50.966;7.002;2022-08-25T05:39:24;22.40;99.90
20384;DHT22;46458;50.966;7.002;2022-08-25T05:41:59;22.40;99.90
20384;DHT22;46458;50.966;7.002;2022-08-25T05:44:31;22.40;99.90
20384;DHT22;46458;50.966;7.002;2022-08-25T05:46:59;22.40;99.90
20384;DHT22;46458;50.966;7.002;2022-08-25T05:49:28;22.40;99.90
20384;DHT22;46458;50.966;7.002;2022-08-25T05:51:57;22.50;99.90
20384;DHT22;46458;50.966;7.002;2022-08-25T05:54:26;22.50;99.90
20384;DHT22;46458;50.966;7.002;2022-08-25T05:56:56;22.50;99.90
20384;DHT22;46458;50.966;7.002;2022-08-25T05:59:25;22.60;99.90
20384;DHT22;46458;50.966;7.002;2022-08-25T06:01:57;22.70;99.90
20384;DHT22;46458;50.966;7.002;2022-08-25T06:04:38;22.80;99.90
20384;DHT22;46458;50.966;7.002;2022-08-25T06:07:07;22.90;99.90
20384;DHT22;46458;50.966;7.002;2022-08-25T06:09:36;22.90;99.90
20384;DHT22;46458;50.966;7.002;2022-08-25T06:12:06;23.00;99.90
20384;DHT22;46458;50.966;7.002;2022-08-25T06:14:36;23.00;99.90
20384;DHT22;46458;50.966;7.002;2022-08-25T06:17:08;23.00;99.90
20384;DHT22;46458;50.966;7.002;2022-08-25T06:19:37;23.10;99.90
20384;DHT22;46458;50.966;7.002;2022-08-25T06:22:08;23.20;99.90
20384;DHT22;46458;50.966;7.002;2022-08-25T06:24:37;23.30;99.90
20384;DHT22;46458;50.966;7.002;2022-08-25T06:27:06;23.40;99.90
20384;DHT22;46458;50.966;7.002;2022-08-25T06:29:35;23.40;99.90
20384;DHT22;46458;50.966;7.002;2022-08-25T06:32:04;23.50;99.90
20384;DHT22;46458;50.966;7.002;2022-08-25T06:34:36;23.60;99.90
20384;DHT22;46458;50.966;7.002;2022-08-25T06:37:05;23.80;99.90
20384;DHT22;46458;50.966;7.002;2022-08-25T06:39:33;23.80;99.90
20384;DHT22;46458;50.966;7.002;2022-08-25T06:42:03;24.00;99.90
20384;DHT22;46458;50.966;7.002;2022-08-25T06:44:32;24.00;99.90
20384;DHT22;46458;50.966;7.002;2022-08-25T06:47:04;24.10;99.90
20384;DHT22;46458;50.966;7.002;2022-08-25T06:49:37;24.20;99.90
20384;DHT22;46458;50.966;7.002;2022-08-25T06:52:06;24.20;99.90
20384;DHT22;46458;50.966;7.002;2022-08-25T06:54:34;24.30;99.90
20384;DHT22;46458;50.966;7.002;2022-08-25T06:57:04;24.30;99.90
20384;DHT22;46458;50.966;7.002;2022-08-25T06:59:34;24.40;99.90
20384;DHT22;46458;50.966;7.002;2022-08-25T07:02:04;24.40;99.90
20384;DHT22;46458;50.966;7.002;2022-08-25T07:04:37;24.50;99.90
20384;DHT22;46458;50.966;7.002;2022-08-25T07:07:06;24.50;99.90
20384;DHT22;46458;50.966;7.002;2022-08-25T07:09:34;24.60;99.90
20384;DHT22;46458;50.966;7.002;2022-08-25T07:12:04;24.70;99.90
20384;DHT22;46458;50.966;7.002;2022-08-25T07:14:33;24.80;99.90
20384;DHT22;46458;50.966;7.002;2022-08-25T07:17:13;25.00;99.90
20384;DHT22;46458;50.966;7.002;2022-08-25T07:19:44;25.10;99.90
20384;DHT22;46458;50.966;7.002;2022-08-25T07:22:13;25.10;99.90
20384;DHT22;46458;50.966;7.002;2022-08-25T07:24:42;25.10;99.90
20384;DHT22;46458;50.966;7.002;2022-08-25T07:27:11;25.20;99.90
20384;DHT22;46458;50.966;7.002;2022-08-25T07:29:40;25.30;99.90
20384;DHT22;46458;50.966;7.002;2022-08-25T07:32:09;25.30;99.90
20384;DHT22;46458;50.966;7.002;2022-08-25T07:34:38;25.50;99.90
20384;DHT22;46458;50.966;7.002;2022-08-25T07:37:25;25.60;99.90
20384;DHT22;46458;50.966;7.002;2022-08-25T07:39:56;25.70;99.90
20384;DHT22;46458;50.966;7.002;2022-08-25T07:42:26;25.80;99.90
20384;DHT22;46458;50.966;7.002;2022-08-25T07:44:55;25.90;99.90
20384;DHT22;46458;50.966;7.002;2022-08-25T07:47:24;26.00;99.90
20384;DHT22;46458;50.966;7.002;2022-08-25T07:49:52;26.00;99.90
20384;DHT22;46458;50.966;7.002;2022-08-25T07:52:21;26.10;99.90
20384;DHT22;46458;50.966;7.002;2022-08-25T07:54:53;26.10;99.90
20384;DHT22;46458;50.966;7.002;2022-08-25T07:57:22;26.30;99.90
20384;DHT22;46458;50.966;7.002;2022-08-25T07:59:53;26.40;99.90
20384;DHT22;46458;50.966;7.002;2022-08-25T08:02:23;26.60;99.90
20384;DHT22;46458;50.966;7.002;2022-08-25T08:04:52;26.70;99.90
20384;DHT22;46458;50.966;7.002;2022-08-25T08:07:24;26.80;99.90
20384;DHT22;46458;50.966;7.002;2022-08-25T08:09:57;26.90;99.90
20384;DHT22;46458;50.966;7.002;2022-08-25T08:12:26;27.10;99.90
20384;DHT22;46458;50.966;7.002;2022-08-25T08:14:56;27.10;99.80
20384;DHT22;46458;50.966;7.002;2022-08-25T08:17:26;27.30;99.60
20384;DHT22;46458;50.966;7.002;2022-08-25T08:19:56;27.40;99.40
20384;DHT22;46458;50.966;7.002;2022-08-25T08:22:25;27.50;99.70
20384;DHT22;46458;50.966;7.002;2022-08-25T08:25:00;27.60;99.20
20384;DHT22;46458;50.966;7.002;2022-08-25T08:27:29;27.80;99.00
20384;DHT22;46458;50.966;7.002;2022-08-25T08:29:58;27.90;98.60
20384;DHT22;46458;50.966;7.002;2022-08-25T08:32:27;28.10;98.60
20384;DHT22;46458;50.966;7.002;2022-08-25T08:34:55;28.20;98.30
20384;DHT22;46458;50.966;7.002;2022-08-25T08:37:25;28.30;98.50
20384;DHT22;46458;50.966;7.002;2022-08-25T08:39:54;28.60;98.20
20384;DHT22;46458;50.966;7.002;2022-08-25T08:42:39;28.70;97.60
20384;DHT22;46458;50.966;7.002;2022-08-25T08:45:31;28.90;97.40
20384;DHT22;46458;50.966;7.002;2022-08-25T08:48:11;28.90;97.20
20384;DHT22;46458;50.966;7.002;2022-08-25T08:50:45;29.10;97.00
20384;DHT22;46458;50.966;7.002;2022-08-25T08:53:21;29.20;96.70
20384;DHT22;46458;50.966;7.002;2022-08-25T08:55:54;29.40;96.70
20384;DHT22;46458;50.966;7.002;2022-08-25T08:58:31;29.60;97.00
20384;DHT22;46458;50.966;7.002;2022-08-25T09:01:06;29.90;96.30
20384;DHT22;46458;50.966;7.002;2022-08-25T09:03:40;30.00;96.00
20384;DHT22;46458;50.966;7.002;2022-08-25T09:06:12;30.00;96.00
20384;DHT22;46458;50.966;7.002;2022-08-25T09:08:46;30.20;95.80
20384;DHT22;46458;50.966;7.002;2022-08-25T09:11:22;30.40;95.40
20384;DHT22;46458;50.966;7.002;2022-08-25T09:14:07;30.50;95.00
20384;DHT22;46458;50.966;7.002;2022-08-25T09:16:44;30.70;95.70
20384;DHT22;46458;50.966;7.002;2022-08-25T09:19:32;30.90;94.70
20384;DHT22;46458;50.966;7.002;2022-08-25T09:22:10;31.00;94.40
20384;DHT22;46458;50.966;7.002;2022-08-25T09:24:50;31.00;94.70
20384;DHT22;46458;50.966;7.002;2022-08-25T09:27:27;31.10;93.90
20384;DHT22;46458;50.966;7.002;2022-08-25T09:30:04;31.30;93.80
20384;DHT22;46458;50.966;7.002;2022-08-25T09:32:36;31.50;93.50
20384;DHT22;46458;50.966;7.002;2022-08-25T09:35:11;31.60;93.30
20384;DHT22;46458;50.966;7.002;2022-08-25T09:37:41;31.70;93.20
20384;DHT22;46458;50.966;7.002;2022-08-25T09:40:10;31.80;92.90
20384;DHT22;46458;50.966;7.002;2022-08-25T09:42:47;31.90;92.80
20384;DHT22;46458;50.966;7.002;2022-08-25T09:45:31;32.10;92.20
20384;DHT22;46458;50.966;7.002;2022-08-25T09:48:05;32.40;92.10
20384;DHT22;46458;50.966;7.002;2022-08-25T09:50:47;32.60;91.90
20384;DHT22;46458;50.966;7.002;2022-08-25T09:53:17;32.70;91.60
20384;DHT22;46458;50.966;7.002;2022-08-25T09:55:52;32.50;91.50
20384;DHT22;46458;50.966;7.002;2022-08-25T09:58:23;32.50;91.60
20384;DHT22;46458;50.966;7.002;2022-08-25T10:01:06;32.90;90.70
20384;DHT22;46458;50.966;7.002;2022-08-25T10:04:03;33.50;91.00
20384;DHT22;46458;50.966;7.002;2022-08-25T10:06:35;34.10;89.10
20384;DHT22;46458;50.966;7.002;2022-08-25T10:09:22;34.40;89.40
20384;DHT22;46458;50.966;7.002;2022-08-25T10:11:56;34.00;88.10
20384;DHT22;46458;50.966;7.002;2022-08-25T10:14:33;34.60;87.90
20384;DHT22;46458;50.966;7.002;2022-08-25T10:17:25;35.60;85.60
20384;DHT22;46458;50.966;7.002;2022-08-25T10:22:44;37.10;81.90
20384;DHT22;46458;50.966;7.002;2022-08-25T10:25:23;38.40;79.50
20384;DHT22;46458;50.966;7.002;2022-08-25T10:28:03;41.00;74.70
20384;DHT22;46458;50.966;7.002;2022-08-25T10:30:38;43.30;70.10
20384;DHT22;46458;50.966;7.002;2022-08-25T10:33:18;42.50;69.70
20384;DHT22;46458;50.966;7.002;2022-08-25T10:35:56;43.20;66.80
20384;DHT22;46458;50.966;7.002;2022-08-25T10:38:36;40.70;68.80
20384;DHT22;46458;50.966;7.002;2022-08-25T10:41:21;38.90;70.30
20384;DHT22;46458;50.966;7.002;2022-08-25T10:43:59;36.50;73.80
20384;DHT22;46458;50.966;7.002;2022-08-25T10:46:35;34.90;78.60
20384;DHT22;46458;50.966;7.002;2022-08-25T10:49:09;34.50;78.80
20384;DHT22;46458;50.966;7.002;2022-08-25T10:51:51;34.10;79.40
20384;DHT22;46458;50.966;7.002;2022-08-25T10:54:33;33.90;80.00
20384;DHT22;46458;50.966;7.002;2022-08-25T10:57:12;34.30;79.60
20384;DHT22;46458;50.966;7.002;2022-08-25T10:59:59;34.00;79.10
20384;DHT22;46458;50.966;7.002;2022-08-25T11:05:30;34.10;80.10
20384;DHT22;46458;50.966;7.002;2022-08-25T11:08:07;35.10;77.40
20384;DHT22;46458;50.966;7.002;2022-08-25T11:10:41;34.80;79.10
20384;DHT22;46458;50.966;7.002;2022-08-25T11:13:16;34.40;79.70
20384;DHT22;46458;50.966;7.002;2022-08-25T11:15:51;34.20;78.00
20384;DHT22;46458;50.966;7.002;2022-08-25T11:18:21;33.70;79.80
20384;DHT22;46458;50.966;7.002;2022-08-25T11:20:57;33.10;80.70
20384;DHT22;46458;50.966;7.002;2022-08-25T11:23:32;33.10;79.80
20384;DHT22;46458;50.966;7.002;2022-08-25T11:26:08;33.10;81.60
20384;DHT22;46458;50.966;7.002;2022-08-25T11:28:48;33.10;80.40
20384;DHT22;46458;50.966;7.002;2022-08-25T11:31:20;32.60;80.70
20384;DHT22;46458;50.966;7.002;2022-08-25T11:33:51;32.90;81.40
20384;DHT22;46458;50.966;7.002;2022-08-25T11:36:28;35.60;77.30
20384;DHT22;46458;50.966;7.002;2022-08-25T11:39:13;37.80;72.90
20384;DHT22;46458;50.966;7.002;2022-08-25T11:41:54;38.30;71.70
20384;DHT22;46458;50.966;7.002;2022-08-25T11:44:41;38.50;71.70
20384;DHT22;46458;50.966;7.002;2022-08-25T11:47:32;38.70;69.20
20384;DHT22;46458;50.966;7.002;2022-08-25T11:50:06;39.30;68.50
20384;DHT22;46458;50.966;7.002;2022-08-25T11:52:47;39.80;66.80
20384;DHT22;46458;50.966;7.002;2022-08-25T11:55:22;39.60;66.80
20384;DHT22;46458;50.966;7.002;2022-08-25T11:58:15;40.10;67.20
20384;DHT22;46458;50.966;7.002;2022-08-25T12:00:48;41.60;64.90
20384;DHT22;46458;50.966;7.002;2022-08-25T12:03:45;39.60;67.60
20384;DHT22;46458;50.966;7.002;2022-08-25T12:06:21;37.80;69.10
20384;DHT22;46458;50.966;7.002;2022-08-25T12:11:52;35.60;72.70
20384;DHT22;46458;50.966;7.002;2022-08-25T12:14:42;34.80;74.60
20384;DHT22;46458;50.966;7.002;2022-08-25T12:17:21;34.30;74.90
20384;DHT22;46458;50.966;7.002;2022-08-25T12:19:58;34.00;74.70
20384;DHT22;46458;50.966;7.002;2022-08-25T12:22:43;34.00;75.50
20384;DHT22;46458;50.966;7.002;2022-08-25T12:28:48;33.50;76.30
20384;DHT22;46458;50.966;7.002;2022-08-25T12:31:28;33.50;74.30
20384;DHT22;46458;50.966;7.002;2022-08-25T12:34:14;33.40;75.40
20384;DHT22;46458;50.966;7.002;2022-08-25T12:36:57;34.40;74.60
20384;DHT22;46458;50.966;7.002;2022-08-25T12:39:29;35.90;71.10
20384;DHT22;46458;50.966;7.002;2022-08-25T12:42:04;35.90;71.50
20384;DHT22;46458;50.966;7.002;2022-08-25T12:44:43;35.50;72.40
20384;DHT22;46458;50.966;7.002;2022-08-25T12:47:26;35.10;72.70
20384;DHT22;46458;50.966;7.002;2022-08-25T12:50:28;34.80;74.00
20384;DHT22;46458;50.966;7.002;2022-08-25T12:53:09;34.30;74.40
20384;DHT22;46458;50.966;7.002;2022-08-25T12:55:44;34.40;75.80
20384;DHT22;46458;50.966;7.002;2022-08-25T12:58:17;34.30;75.40
20384;DHT22;46458;50.966;7.002;2022-08-25T13:01:02;34.30;75.40
20384;DHT22;46458;50.966;7.002;2022-08-25T13:06:42;34.00;75.70
20384;DHT22;46458;50.966;7.002;2022-08-25T13:12:15;34.00;76.60
20384;DHT22;46458;50.966;7.002;2022-08-25T13:14:52;33.90;76.70
20384;DHT22;46458;50.966;7.002;2022-08-25T13:17:29;34.10;75.50
20384;DHT22;46458;50.966;7.002;2022-08-25T13:20:14;34.40;74.90
20384;DHT22;46458;50.966;7.002;2022-08-25T13:22:46;35.60;74.50
20384;DHT22;46458;50.966;7.002;2022-08-25T13:25:18;37.50;71.40
20384;DHT22;46458;50.966;7.002;2022-08-25T13:27:49;37.10;69.70
20384;DHT22;46458;50.966;7.002;2022-08-25T13:30:24;36.40;71.90
20384;DHT22;46458;50.966;7.002;2022-08-25T13:32:57;36.10;70.90
20384;DHT22;46458;50.966;7.002;2022-08-25T13:35:28;35.70;72.30
20384;DHT22;46458;50.966;7.002;2022-08-25T13:38:11;35.90;72.10
20384;DHT22;46458;50.966;7.002;2022-08-25T13:40:37;37.00;71.20
20384;DHT22;46458;50.966;7.002;2022-08-25T13:43:09;37.10;71.10
20384;DHT22;46458;50.966;7.002;2022-08-25T13:45:41;36.40;71.50
20384;DHT22;46458;50.966;7.002;2022-08-25T13:48:31;35.70;71.70
20384;DHT22;46458;50.966;7.002;2022-08-25T13:51:15;35.50;71.60
20384;DHT22;46458;50.966;7.002;2022-08-25T13:53:51;35.10;72.40
20384;DHT22;46458;50.966;7.002;2022-08-25T13:56:26;35.00;72.40
20384;DHT22;46458;50.966;7.002;2022-08-25T13:58:57;35.00;73.30
20384;DHT22;46458;50.966;7.002;2022-08-25T14:01:28;35.00;72.80
20384;DHT22;46458;50.966;7.002;2022-08-25T14:04:22;35.20;71.80
20384;DHT22;46458;50.966;7.002;2022-08-25T14:07:09;35.90;72.30
20384;DHT22;46458;50.966;7.002;2022-08-25T14:09:45;36.20;70.30
20384;DHT22;46458;50.966;7.002;2022-08-25T14:12:27;36.10;71.10
20384;DHT22;46458;50.966;7.002;2022-08-25T14:14:58;36.10;69.80
20384;DHT22;46458;50.966;7.002;2022-08-25T14:17:27;36.50;70.70
20384;DHT22;46458;50.966;7.002;2022-08-25T14:19:59;36.70;69.00
20384;DHT22;46458;50.966;7.002;2022-08-25T14:22:28;36.60;69.30
20384;DHT22;46458;50.966;7.002;2022-08-25T14:25:00;36.60;70.00
20384;DHT22;46458;50.966;7.002;2022-08-25T14:27:31;36.80;68.60
20384;DHT22;46458;50.966;7.002;2022-08-25T14:30:00;37.70;68.00
20384;DHT22;46458;50.966;7.002;2022-08-25T14:32:29;39.10;66.50
20384;DHT22;46458;50.966;7.002;2022-08-25T14:35:01;39.00;64.50
20384;DHT22;46458;50.966;7.002;2022-08-25T14:37:30;38.30;66.90
20384;DHT22;46458;50.966;7.002;2022-08-25T14:39:59;38.20;64.90
20384;DHT22;46458;50.966;7.002;2022-08-25T14:42:28;38.60;65.60
20384;DHT22;46458;50.966;7.002;2022-08-25T14:44:57;38.30;65.20
20384;DHT22;46458;50.966;7.002;2022-08-25T14:47:26;38.00;65.50
20384;DHT22;46458;50.966;7.002;2022-08-25T14:49:55;37.80;65.40
20384;DHT22;46458;50.966;7.002;2022-08-25T14:52:28;37.70;65.30
20384;DHT22;46458;50.966;7.002;2022-08-25T14:54:57;37.60;65.50
20384;DHT22;46458;50.966;7.002;2022-08-25T14:57:27;37.80;65.70
20384;DHT22;46458;50.966;7.002;2022-08-25T14:59:56;37.70;64.60
20384;DHT22;46458;50.966;7.002;2022-08-25T15:02:27;38.10;66.00
20384;DHT22;46458;50.966;7.002;2022-08-25T15:04:59;38.20;63.70
20384;DHT22;46458;50.966;7.002;2022-08-25T15:07:34;38.00;63.30
20384;DHT22;46458;50.966;7.002;2022-08-25T15:10:16;37.60;64.50
20384;DHT22;46458;50.966;7.002;2022-08-25T15:12:45;38.40;66.30
20384;DHT22;46458;50.966;7.002;2022-08-25T15:15:15;39.40;63.70
20384;DHT22;46458;50.966;7.002;2022-08-25T15:17:47;40.90;62.10
20384;DHT22;46458;50.966;7.002;2022-08-25T15:20:16;41.90;61.10
20384;DHT22;46458;50.966;7.002;2022-08-25T15:22:48;42.40;59.10
20384;DHT22;46458;50.966;7.002;2022-08-25T15:25:17;43.80;58.40
20384;DHT22;46458;50.966;7.002;2022-08-25T15:27:49;45.00;56.60
20384;DHT22;46458;50.966;7.002;2022-08-25T15:30:21;46.10;56.20
20384;DHT22;46458;50.966;7.002;2022-08-25T15:32:50;46.80;56.30
20384;DHT22;46458;50.966;7.002;2022-08-25T15:35:23;47.60;53.80
20384;DHT22;46458;50.966;7.002;2022-08-25T15:37:54;47.90;53.50
20384;DHT22;46458;50.966;7.002;2022-08-25T15:40:23;48.00;53.30
20384;DHT22;46458;50.966;7.002;2022-08-25T15:42:52;47.70;52.90
20384;DHT22;46458;50.966;7.002;2022-08-25T15:45:24;47.70;53.40
20384;DHT22;46458;50.966;7.002;2022-08-25T15:47:53;47.60;53.50
20384;DHT22;46458;50.966;7.002;2022-08-25T15:50:22;48.10;52.90
20384;DHT22;46458;50.966;7.002;2022-08-25T15:52:54;47.60;51.90
20384;DHT22;46458;50.966;7.002;2022-08-25T15:55:23;46.70;52.00
20384;DHT22;46458;50.966;7.002;2022-08-25T15:57:52;47.10;53.00
20384;DHT22;46458;50.966;7.002;2022-08-25T16:00:21;46.60;52.60
20384;DHT22;46458;50.966;7.002;2022-08-25T16:02:50;46.70;52.70
20384;DHT22;46458;50.966;7.002;2022-08-25T16:05:22;46.80;52.70
20384;DHT22;46458;50.966;7.002;2022-08-25T16:07:53;46.70;52.60
20384;DHT22;46458;50.966;7.002;2022-08-25T16:10:22;46.90;53.50
20384;DHT22;46458;50.966;7.002;2022-08-25T16:12:52;46.90;52.40
20384;DHT22;46458;50.966;7.002;2022-08-25T16:15:23;46.70;51.70
20384;DHT22;46458;50.966;7.002;2022-08-25T16:17:52;45.80;51.50
20384;DHT22;46458;50.966;7.002;2022-08-25T16:20:20;44.70;51.80
20384;DHT22;46458;50.966;7.002;2022-08-25T16:22:49;43.10;53.10
20384;DHT22;46458;50.966;7.002;2022-08-25T16:25:27;42.20;53.70